Time,TemperatureF,DewpointF,PressureIn,WindDirection,WindDirectionDegrees,WindSpeedMPH,WindSpeedGustMPH,Humidity,HourlyPrecipIn,Conditions,Clouds,dailyrainin,SoftwareType,DateUTC
2013-09-30 00:01:00,55.8,54.6,30.03,NNE,25,0.0,0.0,96,0.00,,,0.00,WUHU216DAVISVP2,2013-09-30 04:01:00,
2013-09-30 00:06:00,55.9,54.7,30.03,NNE,26,0.0,0.0,96,0.00,,,0.00,WUHU216DAVISVP2,2013-09-30 04:06:00,
2013-09-30 00:11:00,56.2,55.0,30.03,NNE,26,0.0,0.0,96,0.00,,,0.00,WUHU216DAVISVP2,2013-09-30 04:11:00,
2013-09-30 00:16:00,56.2,55.0,30.03,NNE,25,0.0,0.0,96,0.00,,,0.00,WUHU216DAVISVP2,2013-09-30 04:16:00,
2013-09-30 00:21:00,56.4,55.2,30.03,NNE,26,0.0,0.0,96,0.00,,,0.00,WUHU216DAVISVP2,2013-09-30 04:21:00,
2013-09-30 00:26:00,56.3,55.1,30.03,NNE,26,0.0,0.0,96,0.00,,,0.00,WUHU216DAVISVP2,2013-09-30 04:26:00,
2013-09-30 00:31:00,56.5,55.3,30.02,NNE,25,0.0,0.0,96,0.00,,,0.00,WUHU216DAVISVP2,2013-09-30 04:31:00,
2013-09-30 00:36:00,56.3,55.1,30.03,NNE,26,0.0,0.0,96,0.00,,,0.00,WUHU216DAVISVP2,2013-09-30 04:36:00,
2013-09-30 00:41:00,56.4,55.2,30.03,NNE,26,0.0,0.0,96,0.00,,,0.00,WUHU216DAVISVP2,2013-09-30 04:41:00,
2013-09-30 00:46:00,56.5,55.3,30.03,NNE,26,0.0,0.0,96,0.00,,,0.00,WUHU216DAVISVP2,2013-09-30 04:46:00,
2013-09-30 00:51:00,56.5,55.3,30.03,NNE,26,0.0,0.0,96,0.00,,,0.00,WUHU216DAVISVP2,2013-09-30 04:51:00,
2013-09-30 00:56:00,56.5,55.4,30.03,NNE,25,0.0,0.0,96,0.00,,,0.00,WUHU216DAVISVP2,2013-09-30 04:56:00,
2013-09-30 01:01:00,56.6,55.5,30.03,NNE,26,0.0,0.0,96,0.00,,,0.00,WUHU216DAVISVP2,2013-09-30 05:01:00,
2013-09-30 01:06:00,56.8,55.7,30.03,NNE,26,0.0,0.0,96,0.00,,,0.00,WUHU216DAVISVP2,2013-09-30 05:06:00,
2013-09-30 01:11:00,56.9,55.8,30.03,NNE,26,0.0,0.0,96,0.00,,,0.00,WUHU216DAVISVP2,2013-09-30 05:11:00,
2013-09-30 01:16:00,56.9,55.8,30.03,NNE,25,0.0,0.0,96,0.00,,,0.00,WUHU216DAVISVP2,2013-09-30 05:16:00,
2013-09-30 01:21:00,56.7,55.5,30.03,NNE,26,0.0,0.0,96,0.00,,,0.00,WUHU216DAVISVP2,2013-09-30 05:21:00,
2013-09-30 01:26:00,56.6,55.4,30.03,NNE,26,0.0,0.0,96,0.00,,,0.00,WUHU216DAVISVP2,2013-09-30 05:26:00,
2013-09-30 01:31:00,56.5,55.3,30.03,NNE,26,0.0,0.0,96,0.00,,,0.00,WUHU216DAVISVP2,2013-09-30 05:31:00,
2013-09-30 01:36:00,56.5,55.3,30.03,NNE,26,0.0,0.0,96,0.00,,,0.00,WUHU216DAVISVP2,2013-09-30 05:36:00,
2013-09-30 01:41:00,56.6,55.4,30.03,NNE,26,0.0,0.0,96,0.00,,,0.00,WUHU216DAVISVP2,2013-09-30 05:41:00,
2013-09-30 01:46:00,56.8,55.6,30.04,NNE,26,0.0,0.0,96,0.00,,,0.00,WUHU216DAVISVP2,2013-09-30 05:46:00,
2013-09-30 01:51:00,56.7,55.5,30.03,NNE,25,0.0,0.0,96,0.00,,,0.00,WUHU216DAVISVP2,2013-09-30 05:51:00,
2013-09-30 01:56:00,56.6,55.4,30.03,NNE,26,0.0,0.0,96,0.00,,,0.00,WUHU216DAVISVP2,2013-09-30 05:56:00,
2013-09-30 02:01:00,56.6,55.4,30.04,NNE,26,0.0,0.0,96,0.00,,,0.00,WUHU216DAVISVP2,2013-09-30 06:01:00,
2013-09-30 02:06:00,56.5,55.3,30.03,NNE,26,0.0,0.0,96,0.00,,,0.00,WUHU216DAVISVP2,2013-09-30 06:06:00,
2013-09-30 02:11:00,56.5,55.3,30.03,NNE,25,0.0,0.0,96,0.00,,,0.00,WUHU216DAVISVP2,2013-09-30 06:11:00,
2013-09-30 02:16:00,56.5,55.3,30.03,NNE,26,0.0,0.0,96,0.00,,,0.00,WUHU216DAVISVP2,2013-09-30 06:16:00,
2013-09-30 02:21:00,56.5,55.3,30.03,NNE,25,0.0,0.0,96,0.00,,,0.00,WUHU216DAVISVP2,2013-09-30 06:21:00,
2013-09-30 02:26:00,56.5,55.3,30.03,NNE,26,0.0,0.0,96,0.00,,,0.00,WUHU216DAVISVP2,2013-09-30 06:26:00,
2013-09-30 02:31:00,56.6,55.4,30.03,NNE,26,0.0,0.0,96,0.00,,,0.00,WUHU216DAVISVP2,2013-09-30 06:31:00,
2013-09-30 02:36:00,56.7,55.5,30.03,NNE,25,0.0,0.0,96,0.00,,,0.00,WUHU216DAVISVP2,2013-09-30 06:36:00,
2013-09-30 02:41:00,56.6,55.4,30.03,NNE,26,0.0,0.0,96,0.00,,,0.00,WUHU216DAVISVP2,2013-09-30 06:41:00,
2013-09-30 02:46:00,56.5,55.3,30.03,NNE,26,0.0,0.0,96,0.00,,,0.00,WUHU216DAVISVP2,2013-09-30 06:46:00,
2013-09-30 02:51:00,56.3,55.1,30.03,NNE,26,0.0,0.0,96,0.00,,,0.00,WUHU216DAVISVP2,2013-09-30 06:51:00,
2013-09-30 02:56:00,56.1,54.9,30.02,NNE,26,0.0,0.0,96,0.00,,,0.00,WUHU216DAVISVP2,2013-09-30 06:56:00,
2013-09-30 03:01:00,56.0,54.8,30.02,NNE,26,0.0,0.0,96,0.00,,,0.00,WUHU216DAVISVP2,2013-09-30 07:01:00,
2013-09-30 03:06:00,55.9,54.7,30.02,NNE,25,0.0,0.0,96,0.00,,,0.00,WUHU216DAVISVP2,2013-09-30 07:06:00,
2013-09-30 03:11:00,55.8,54.6,30.02,NNE,26,0.0,0.0,96,0.00,,,0.00,WUHU216DAVISVP2,2013-09-30 07:11:00,
2013-09-30 03:16:00,55.7,54.5,30.02,NNE,26,0.0,0.0,96,0.00,,,0.00,WUHU216DAVISVP2,2013-09-30 07:16:00,
2013-09-30 03:21:00,55.7,54.5,30.02,NNE,26,0.0,0.0,96,0.00,,,0.00,WUHU216DAVISVP2,2013-09-30 07:21:00,
2013-09-30 03:26:00,55.6,54.4,30.02,NNE,26,0.0,0.0,96,0.00,,,0.00,WUHU216DAVISVP2,2013-09-30 07:26:00,
2013-09-30 03:31:00,55.5,54.3,30.02,NNE,25,0.0,0.0,96,0.00,,,0.00,WUHU216DAVISVP2,2013-09-30 07:31:00,
2013-09-30 03:36:00,55.5,54.3,30.02,NNE,26,0.0,0.0,96,0.00,,,0.00,WUHU216DAVISVP2,2013-09-30 07:36:00,
2013-09-30 03:41:00,55.5,54.3,30.02,NNE,26,0.0,0.0,96,0.00,,,0.00,WUHU216DAVISVP2,2013-09-30 07:41:00,
2013-09-30 03:46:00,55.6,54.4,30.02,NNE,25,0.0,0.0,96,0.00,,,0.00,WUHU216DAVISVP2,2013-09-30 07:46:00,
2013-09-30 03:51:00,55.7,54.5,30.02,NNE,26,0.0,0.0,96,0.00,,,0.00,WUHU216DAVISVP2,2013-09-30 07:51:00,
2013-09-30 03:57:00,55.8,54.6,30.02,NNE,26,0.0,0.0,96,0.00,,,0.00,WUHU216DAVISVP2,2013-09-30 07:57:00,
2013-09-30 04:02:00,55.8,54.6,30.02,NNE,26,0.0,0.0,96,0.00,,,0.00,WUHU216DAVISVP2,2013-09-30 08:02:00,
2013-09-30 04:07:00,55.8,54.6,30.02,NNE,26,0.0,0.0,96,0.00,,,0.00,WUHU216DAVISVP2,2013-09-30 08:07:00,
2013-09-30 04:12:00,55.9,54.7,30.02,NNE,26,0.0,0.0,96,0.00,,,0.00,WUHU216DAVISVP2,2013-09-30 08:12:00,
2013-09-30 04:17:00,55.9,54.8,30.02,NNE,26,0.0,0.0,96,0.00,,,0.00,WUHU216DAVISVP2,2013-09-30 08:17:00,
2013-09-30 04:22:00,55.9,54.8,30.02,NNE,26,0.0,0.0,96,0.00,,,0.00,WUHU216DAVISVP2,2013-09-30 08:22:00,
2013-09-30 04:27:00,55.9,54.8,30.02,NNE,26,0.0,0.0,96,0.00,,,0.00,WUHU216DAVISVP2,2013-09-30 08:27:00,
2013-09-30 04:32:00,56.0,54.9,30.02,NNE,26,0.0,0.0,96,0.00,,,0.00,WUHU216DAVISVP2,2013-09-30 08:32:00,
2013-09-30 04:37:00,56.0,54.9,30.02,NNE,26,0.0,0.0,96,0.00,,,0.00,WUHU216DAVISVP2,2013-09-30 08:37:00,
2013-09-30 04:42:00,56.0,54.9,30.02,NNE,26,0.0,0.0,96,0.00,,,0.00,WUHU216DAVISVP2,2013-09-30 08:42:00,
2013-09-30 04:47:00,56.0,54.9,30.02,NNE,26,0.0,0.0,96,0.00,,,0.00,WUHU216DAVISVP2,2013-09-30 08:47:00,
2013-09-30 04:52:00,56.1,55.0,30.02,NNE,26,0.0,0.0,96,0.00,,,0.00,WUHU216DAVISVP2,2013-09-30 08:52:00,
2013-09-30 04:57:00,56.0,54.8,30.03,NNE,26,0.0,0.0,96,0.00,,,0.00,WUHU216DAVISVP2,2013-09-30 08:57:00,
2013-09-30 05:02:00,56.0,54.8,30.03,NNE,26,0.0,0.0,96,0.00,,,0.00,WUHU216DAVISVP2,2013-09-30 09:02:00,
2013-09-30 05:07:00,56.0,54.8,30.03,NNE,26,0.0,0.0,96,0.00,,,0.00,WUHU216DAVISVP2,2013-09-30 09:07:00,
2013-09-30 05:12:00,56.0,54.8,30.03,North,351,0.0,0.0,96,0.00,,,0.00,WUHU216DAVISVP2,2013-09-30 09:12:00,
2013-09-30 05:17:00,56.0,54.8,30.03,North,352,0.0,0.0,96,0.00,,,0.00,WUHU216DAVISVP2,2013-09-30 09:17:00,
2013-09-30 05:22:00,56.0,54.8,30.03,North,351,0.0,0.0,96,0.00,,,0.00,WUHU216DAVISVP2,2013-09-30 09:22:00,
2013-09-30 05:27:00,56.0,54.8,30.03,North,352,0.0,0.0,96,0.00,,,0.00,WUHU216DAVISVP2,2013-09-30 09:27:00,
2013-09-30 05:32:00,56.1,54.9,30.03,ENE,75,1.0,1.0,96,0.00,,,0.00,WUHU216DAVISVP2,2013-09-30 09:32:00,
2013-09-30 05:37:00,56.0,54.8,30.03,ENE,75,0.0,1.0,96,0.00,,,0.00,WUHU216DAVISVP2,2013-09-30 09:37:00,
2013-09-30 05:42:00,56.0,54.8,30.03,ENE,75,0.0,1.0,96,0.00,,,0.00,WUHU216DAVISVP2,2013-09-30 09:42:00,
2013-09-30 05:47:00,56.0,54.8,30.03,ENE,75,0.0,1.0,96,0.00,,,0.00,WUHU216DAVISVP2,2013-09-30 09:47:00,
2013-09-30 05:52:00,55.7,54.5,30.03,ENE,75,1.0,1.0,96,0.00,,,0.00,WUHU216DAVISVP2,2013-09-30 09:52:00,
2013-09-30 05:57:00,55.6,54.4,30.03,East,97,1.0,1.0,96,0.00,,,0.00,WUHU216DAVISVP2,2013-09-30 09:57:00,
2013-09-30 06:02:00,55.5,54.3,30.03,ESE,111,1.0,1.0,96,0.00,,,0.00,WUHU216DAVISVP2,2013-09-30 10:02:00,
2013-09-30 06:07:00,55.4,54.2,30.03,ESE,111,0.0,1.0,96,0.00,,,0.00,WUHU216DAVISVP2,2013-09-30 10:07:00,
2013-09-30 06:12:00,55.3,54.1,30.03,ESE,111,0.0,1.0,96,0.00,,,0.00,WUHU216DAVISVP2,2013-09-30 10:12:00,
2013-09-30 06:17:00,55.1,53.9,30.03,ESE,112,0.0,1.0,96,0.00,,,0.00,WUHU216DAVISVP2,2013-09-30 10:17:00,
2013-09-30 06:22:00,55.0,53.8,30.03,ESE,111,1.0,1.0,96,0.00,,,0.00,WUHU216DAVISVP2,2013-09-30 10:22:00,
2013-09-30 06:27:00,55.0,53.8,30.03,ESE,111,1.0,1.0,96,0.00,,,0.00,WUHU216DAVISVP2,2013-09-30 10:27:00,
2013-09-30 06:32:00,55.0,53.8,30.04,ESE,112,0.0,1.0,96,0.00,,,0.00,WUHU216DAVISVP2,2013-09-30 10:32:00,
2013-09-30 06:37:00,54.9,53.7,30.04,ESE,112,0.0,1.0,96,0.00,,,0.00,WUHU216DAVISVP2,2013-09-30 10:37:00,
2013-09-30 06:42:00,54.9,53.7,30.04,SE,136,0.0,1.0,96,0.00,,,0.00,WUHU216DAVISVP2,2013-09-30 10:42:00,
2013-09-30 06:47:00,54.9,53.7,30.04,SE,137,0.0,1.0,96,0.00,,,0.00,WUHU216DAVISVP2,2013-09-30 10:47:00,
2013-09-30 06:52:00,54.8,53.6,30.04,SE,139,0.0,1.0,96,0.00,,,0.00,WUHU216DAVISVP2,2013-09-30 10:52:00,
2013-09-30 06:57:00,54.8,53.6,30.04,SE,140,0.0,1.0,96,0.00,,,0.00,WUHU216DAVISVP2,2013-09-30 10:57:00,
2013-09-30 07:02:00,54.8,53.6,30.04,SE,140,0.0,1.0,96,0.00,,,0.00,WUHU216DAVISVP2,2013-09-30 11:02:00,
2013-09-30 07:07:00,54.8,53.6,30.04,SE,139,0.0,1.0,96,0.00,,,0.00,WUHU216DAVISVP2,2013-09-30 11:07:00,
2013-09-30 07:12:00,54.8,53.6,30.04,SE,139,0.0,0.0,96,0.00,,,0.00,WUHU216DAVISVP2,2013-09-30 11:12:00,
2013-09-30 07:17:00,54.9,53.7,30.05,SE,139,0.0,0.0,96,0.00,,,0.00,WUHU216DAVISVP2,2013-09-30 11:17:00,
2013-09-30 07:22:00,54.9,53.7,30.05,SE,140,0.0,0.0,96,0.00,,,0.00,WUHU216DAVISVP2,2013-09-30 11:22:00,
2013-09-30 07:27:00,54.9,53.7,30.05,SE,139,0.0,0.0,96,0.00,,,0.00,WUHU216DAVISVP2,2013-09-30 11:27:00,
2013-09-30 07:32:00,54.8,53.6,30.05,SE,139,0.0,0.0,96,0.00,,,0.00,WUHU216DAVISVP2,2013-09-30 11:32:00,
2013-09-30 07:37:00,54.8,53.7,30.05,SE,139,0.0,0.0,96,0.00,,,0.00,WUHU216DAVISVP2,2013-09-30 11:37:00,
2013-09-30 07:42:00,54.8,53.7,30.05,SE,139,0.0,0.0,96,0.00,,,0.00,WUHU216DAVISVP2,2013-09-30 11:42:00,
2013-09-30 07:47:00,54.8,53.7,30.05,SE,139,0.0,1.0,96,0.00,,,0.00,WUHU216DAVISVP2,2013-09-30 11:47:00,
2013-09-30 07:52:00,54.8,53.7,30.05,SE,140,0.0,1.0,96,0.00,,,0.00,WUHU216DAVISVP2,2013-09-30 11:52:00,
2013-09-30 07:57:00,54.9,53.8,30.06,SE,139,0.0,1.0,96,0.00,,,0.00,WUHU216DAVISVP2,2013-09-30 11:57:00,
2013-09-30 08:02:00,54.9,53.8,30.06,SE,139,0.0,1.0,96,0.00,,,0.00,WUHU216DAVISVP2,2013-09-30 12:02:00,
2013-09-30 08:07:00,55.0,53.9,30.06,SE,139,1.0,1.0,96,0.00,,,0.00,WUHU216DAVISVP2,2013-09-30 12:07:00,
2013-09-30 08:12:00,55.0,53.9,30.06,SE,139,0.0,1.0,96,0.00,,,0.00,WUHU216DAVISVP2,2013-09-30 12:12:00,
2013-09-30 08:17:00,55.0,53.9,30.06,SE,138,1.0,1.0,96,0.00,,,0.00,WUHU216DAVISVP2,2013-09-30 12:17:00,
2013-09-30 08:22:00,55.0,53.8,30.06,SE,136,0.0,1.0,96,0.00,,,0.00,WUHU216DAVISVP2,2013-09-30 12:22:00,
2013-09-30 08:27:00,55.1,53.9,30.06,SE,137,0.0,1.0,96,0.00,,,0.00,WUHU216DAVISVP2,2013-09-30 12:27:00,
2013-09-30 08:32:00,55.1,53.9,30.06,SE,137,0.0,1.0,96,0.00,,,0.00,WUHU216DAVISVP2,2013-09-30 12:32:00,
2013-09-30 08:37:00,55.3,54.1,30.06,SW,232,1.0,1.0,96,0.00,,,0.00,WUHU216DAVISVP2,2013-09-30 12:37:00,
2013-09-30 08:42:00,55.3,54.1,30.06,SW,232,0.0,1.0,96,0.00,,,0.00,WUHU216DAVISVP2,2013-09-30 12:42:00,
2013-09-30 08:47:00,55.4,54.2,30.06,WSW,243,0.0,1.0,96,0.00,,,0.00,WUHU216DAVISVP2,2013-09-30 12:47:00,
2013-09-30 08:52:00,55.5,54.3,30.06,WSW,243,1.0,1.0,96,0.00,,,0.00,WUHU216DAVISVP2,2013-09-30 12:52:00,
2013-09-30 08:57:00,55.6,54.4,30.06,WSW,243,0.0,1.0,96,0.00,,,0.00,WUHU216DAVISVP2,2013-09-30 12:57:00,
2013-09-30 09:02:00,55.9,54.7,30.06,WSW,243,1.0,1.0,96,0.00,,,0.00,WUHU216DAVISVP2,2013-09-30 13:02:00,
2013-09-30 09:07:00,56.4,55.2,30.06,WSW,256,1.0,1.0,96,0.00,,,0.00,WUHU216DAVISVP2,2013-09-30 13:07:00,
2013-09-30 09:12:00,56.5,55.3,30.06,WNW,286,1.2,2.0,96,0.00,,,0.00,WUHU216DAVISVP2,2013-09-30 13:12:00,
2013-09-30 09:17:00,56.8,55.6,30.05,WNW,294,1.0,2.0,96,0.00,,,0.00,WUHU216DAVISVP2,2013-09-30 13:17:00,
2013-09-30 09:22:00,56.9,55.7,30.06,WNW,295,0.0,2.0,96,0.00,,,0.00,WUHU216DAVISVP2,2013-09-30 13:22:00,
2013-09-30 09:27:00,57.4,56.2,30.05,WNW,295,0.0,2.0,96,0.00,,,0.00,WUHU216DAVISVP2,2013-09-30 13:27:00,
2013-09-30 09:32:00,57.7,56.5,30.05,WNW,295,0.0,1.0,96,0.00,,,0.00,WUHU216DAVISVP2,2013-09-30 13:32:00,
2013-09-30 09:37:00,58.1,56.9,30.06,WNW,295,1.0,1.0,96,0.00,,,0.00,WUHU216DAVISVP2,2013-09-30 13:37:00,
2013-09-30 09:42:00,58.7,57.5,30.06,WNW,295,0.0,1.0,96,0.00,,,0.00,WUHU216DAVISVP2,2013-09-30 13:42:00,
2013-09-30 09:47:00,59.1,57.9,30.06,WNW,295,0.0,1.0,96,0.00,,,0.00,WUHU216DAVISVP2,2013-09-30 13:47:00,
2013-09-30 09:52:00,59.4,58.2,30.05,WNW,295,0.0,1.0,96,0.00,,,0.00,WUHU216DAVISVP2,2013-09-30 13:52:00,
2013-09-30 09:57:00,59.6,58.4,30.06,WNW,295,0.0,1.0,96,0.00,,,0.00,WUHU216DAVISVP2,2013-09-30 13:57:00,
2013-09-30 10:02:00,59.8,58.6,30.06,WNW,295,1.0,1.0,96,0.00,,,0.00,WUHU216DAVISVP2,2013-09-30 14:02:00,
2013-09-30 10:07:00,60.2,59.0,30.06,WNW,295,0.0,1.0,96,0.00,,,0.00,WUHU216DAVISVP2,2013-09-30 14:07:00,
2013-09-30 10:12:00,60.5,59.0,30.06,WNW,293,1.0,1.0,95,0.00,,,0.00,WUHU216DAVISVP2,2013-09-30 14:12:00,
2013-09-30 10:17:00,61.1,59.6,30.06,WNW,293,1.0,1.0,95,0.00,,,0.00,WUHU216DAVISVP2,2013-09-30 14:17:00,
2013-09-30 10:22:00,62.1,60.3,30.06,WNW,293,1.0,1.0,94,0.00,,,0.00,WUHU216DAVISVP2,2013-09-30 14:22:00,
2013-09-30 10:27:00,63.6,61.2,30.06,East,86,1.0,1.0,92,0.00,,,0.00,WUHU216DAVISVP2,2013-09-30 14:27:00,
2013-09-30 10:32:00,64.9,60.6,30.05,East,86,0.0,1.0,86,0.00,,,0.00,WUHU216DAVISVP2,2013-09-30 14:32:00,
2013-09-30 10:37:00,65.8,60.9,30.06,NE,47,0.0,1.0,84,0.00,,,0.00,WUHU216DAVISVP2,2013-09-30 14:37:00,
2013-09-30 10:42:00,66.6,61.0,30.05,ENE,75,2.0,2.0,82,0.00,,,0.00,WUHU216DAVISVP2,2013-09-30 14:42:00,
2013-09-30 10:47:00,66.9,60.5,30.05,ENE,77,1.0,2.0,80,0.00,,,0.00,WUHU216DAVISVP2,2013-09-30 14:47:00,
2013-09-30 10:52:00,67.6,61.9,30.05,ESE,119,2.0,2.0,82,0.00,,,0.00,WUHU216DAVISVP2,2013-09-30 14:52:00,
2013-09-30 10:57:00,68.0,60.9,30.05,East,87,1.6,2.0,78,0.00,,,0.00,WUHU216DAVISVP2,2013-09-30 14:57:00,
2013-09-30 11:02:00,68.2,61.1,30.05,East,84,1.5,2.0,78,0.00,,,0.00,WUHU216DAVISVP2,2013-09-30 15:02:00,
2013-09-30 11:07:00,68.7,61.7,30.04,East,95,1.0,2.0,78,0.00,,,0.00,WUHU216DAVISVP2,2013-09-30 15:07:00,
2013-09-30 11:12:00,69.6,62.2,30.04,NNE,30,1.0,2.0,77,0.00,,,0.00,WUHU216DAVISVP2,2013-09-30 15:12:00,
2013-09-30 11:17:00,70.2,61.7,30.04,West,273,3.0,3.0,74,0.00,,,0.00,WUHU216DAVISVP2,2013-09-30 15:17:00,
2013-09-30 11:22:00,70.4,61.5,30.04,WNW,283,1.0,3.0,73,0.00,,,0.00,WUHU216DAVISVP2,2013-09-30 15:22:00,
2013-09-30 11:27:00,71.2,62.6,30.03,NW,314,1.2,3.0,74,0.00,,,0.00,WUHU216DAVISVP2,2013-09-30 15:27:00,
2013-09-30 11:32:00,71.8,62.5,30.03,SW,226,1.2,3.0,72,0.00,,,0.00,WUHU216DAVISVP2,2013-09-30 15:32:00,
2013-09-30 11:37:00,72.4,62.6,30.03,SW,231,1.2,3.0,71,0.00,,,0.00,WUHU216DAVISVP2,2013-09-30 15:37:00,
2013-09-30 11:42:00,72.2,62.1,30.03,NNW,336,2.0,5.0,70,0.00,,,0.00,WUHU216DAVISVP2,2013-09-30 15:42:00,
2013-09-30 11:47:00,72.0,61.9,30.03,NNW,345,1.6,5.0,70,0.00,,,0.00,WUHU216DAVISVP2,2013-09-30 15:47:00,
2013-09-30 11:52:00,72.6,62.4,30.03,NNW,339,1.8,5.0,70,0.00,,,0.00,WUHU216DAVISVP2,2013-09-30 15:52:00,
2013-09-30 11:57:00,72.9,62.3,30.03,ENE,59,1.5,5.0,69,0.00,,,0.00,WUHU216DAVISVP2,2013-09-30 15:57:00,
2013-09-30 12:02:00,72.9,63.5,30.02,ENE,71,2.0,3.0,72,0.00,,,0.00,WUHU216DAVISVP2,2013-09-30 16:02:00,
2013-09-30 12:07:00,73.4,62.4,30.03,SW,232,2.1,3.0,68,0.00,,,0.00,WUHU216DAVISVP2,2013-09-30 16:07:00,
2013-09-30 12:12:00,73.9,62.5,30.03,SW,226,2.0,3.0,67,0.00,,,0.00,WUHU216DAVISVP2,2013-09-30 16:12:00,
2013-09-30 12:17:00,74.2,62.3,30.02,West,262,2.0,4.0,66,0.00,,,0.00,WUHU216DAVISVP2,2013-09-30 16:17:00,
2013-09-30 12:22:00,74.1,61.6,30.02,West,260,1.0,4.0,65,0.00,,,0.00,WUHU216DAVISVP2,2013-09-30 16:22:00,
2013-09-30 12:27:00,73.5,61.2,30.02,NW,319,1.5,4.0,65,0.00,,,0.00,WUHU216DAVISVP2,2013-09-30 16:27:00,
2013-09-30 12:32:00,72.7,61.1,30.02,West,271,2.0,4.0,67,0.00,,,0.00,WUHU216DAVISVP2,2013-09-30 16:32:00,
2013-09-30 12:37:00,72.9,62.3,30.02,East,93,1.0,4.0,69,0.00,,,0.00,WUHU216DAVISVP2,2013-09-30 16:37:00,
2013-09-30 12:42:00,73.8,61.7,30.02,East,91,1.5,4.0,66,0.00,,,0.00,WUHU216DAVISVP2,2013-09-30 16:42:00,
2013-09-30 12:47:00,74.6,62.1,30.01,West,273,1.7,4.0,65,0.00,,,0.00,WUHU216DAVISVP2,2013-09-30 16:47:00,
2013-09-30 12:52:00,74.8,61.6,30.01,WSW,258,2.4,4.0,63,0.00,,,0.00,WUHU216DAVISVP2,2013-09-30 16:52:00,
2013-09-30 12:57:00,75.0,62.2,30.01,WNW,299,2.0,5.0,64,0.00,,,0.00,WUHU216DAVISVP2,2013-09-30 16:57:00,
2013-09-30 13:02:00,75.7,63.8,30.01,WSW,238,2.0,5.0,66,0.00,,,0.00,WUHU216DAVISVP2,2013-09-30 17:02:00,
2013-09-30 13:07:00,75.8,61.6,30.01,ENE,58,2.3,5.0,61,0.00,,,0.00,WUHU216DAVISVP2,2013-09-30 17:07:00,
2013-09-30 13:12:00,75.2,60.6,30.01,ENE,74,2.0,5.0,60,0.00,,,0.00,WUHU216DAVISVP2,2013-09-30 17:12:00,
2013-09-30 13:17:00,75.4,60.8,30.01,NE,42,4.0,6.0,60,0.00,,,0.00,WUHU216DAVISVP2,2013-09-30 17:17:00,
2013-09-30 13:22:00,75.6,60.9,30.00,East,80,3.9,6.0,60,0.00,,,0.00,WUHU216DAVISVP2,2013-09-30 17:22:00,
2013-09-30 13:27:00,76.2,62.4,30.00,ENE,72,2.0,6.0,62,0.00,,,0.00,WUHU216DAVISVP2,2013-09-30 17:27:00,
2013-09-30 13:32:00,76.9,61.7,30.00,ESE,111,2.4,7.0,59,0.00,,,0.00,WUHU216DAVISVP2,2013-09-30 17:32:00,
2013-09-30 13:37:00,76.5,60.1,30.00,NE,55,3.0,7.0,57,0.00,,,0.00,WUHU216DAVISVP2,2013-09-30 17:37:00,
2013-09-30 13:42:00,76.4,60.7,30.00,WNW,285,1.6,7.0,58,0.00,,,0.00,WUHU216DAVISVP2,2013-09-30 17:42:00,
2013-09-30 13:47:00,75.5,62.0,30.00,WNW,288,1.8,7.0,63,0.00,,,0.00,WUHU216DAVISVP2,2013-09-30 17:47:00,
2013-09-30 13:52:00,74.8,62.2,30.00,NW,307,1.2,4.0,65,0.00,,,0.00,WUHU216DAVISVP2,2013-09-30 17:52:00,
2013-09-30 13:57:00,73.9,61.0,30.00,WNW,297,1.0,4.0,64,0.00,,,0.00,WUHU216DAVISVP2,2013-09-30 17:57:00,
2013-09-30 14:02:00,73.4,61.3,30.00,NNW,336,0.0,3.0,66,0.00,,,0.00,WUHU216DAVISVP2,2013-09-30 18:02:00,
2013-09-30 14:07:00,72.9,61.9,30.00,NW,317,1.0,2.0,68,0.00,,,0.00,WUHU216DAVISVP2,2013-09-30 18:07:00,
2013-09-30 14:12:00,72.3,62.2,29.99,NW,309,1.0,2.0,70,0.00,,,0.00,WUHU216DAVISVP2,2013-09-30 18:12:00,
2013-09-30 14:17:00,71.8,61.7,29.99,WNW,288,2.0,3.0,70,0.00,,,0.00,WUHU216DAVISVP2,2013-09-30 18:17:00,
2013-09-30 14:22:00,71.4,61.7,29.99,WNW,296,1.1,3.0,71,0.00,,,0.00,WUHU216DAVISVP2,2013-09-30 18:22:00,
2013-09-30 14:27:00,71.1,62.9,29.99,WNW,298,1.2,3.0,75,0.00,,,0.00,WUHU216DAVISVP2,2013-09-30 18:27:00,
2013-09-30 14:32:00,71.0,62.1,29.99,WNW,295,0.0,3.0,73,0.00,,,0.00,WUHU216DAVISVP2,2013-09-30 18:32:00,
2013-09-30 14:37:00,71.1,62.2,29.99,WNW,283,1.0,3.0,73,0.00,,,0.00,WUHU216DAVISVP2,2013-09-30 18:37:00,
2013-09-30 14:42:00,71.4,62.1,29.99,West,260,2.0,3.0,72,0.00,,,0.00,WUHU216DAVISVP2,2013-09-30 18:42:00,
2013-09-30 14:47:00,71.8,62.8,29.99,NNW,332,1.7,4.0,73,0.00,,,0.00,WUHU216DAVISVP2,2013-09-30 18:47:00,
2013-09-30 14:52:00,73.2,62.2,29.99,WSW,255,1.2,4.0,68,0.00,,,0.00,WUHU216DAVISVP2,2013-09-30 18:52:00,
2013-09-30 14:57:00,74.0,60.6,29.98,SW,234,1.1,6.0,63,0.00,,,0.00,WUHU216DAVISVP2,2013-09-30 18:57:00,
2013-09-30 15:02:00,74.8,60.9,29.99,NE,46,4.0,6.0,62,0.00,,,0.00,WUHU216DAVISVP2,2013-09-30 19:02:00,
2013-09-30 15:07:00,74.1,60.9,29.98,West,272,3.5,7.0,63,0.00,,,0.00,WUHU216DAVISVP2,2013-09-30 19:07:00,
2013-09-30 15:12:00,73.5,61.4,29.98,West,270,4.0,7.0,66,0.00,,,0.00,WUHU216DAVISVP2,2013-09-30 19:12:00,
2013-09-30 15:17:00,72.9,60.4,29.98,WNW,294,2.9,7.0,65,0.00,,,0.00,WUHU216DAVISVP2,2013-09-30 19:17:00,
2013-09-30 15:22:00,72.3,61.1,29.98,WNW,295,4.0,7.0,68,0.00,,,0.00,WUHU216DAVISVP2,2013-09-30 19:22:00,
2013-09-30 15:27:00,71.5,61.6,29.98,WNW,295,1.8,6.0,71,0.00,,,0.00,WUHU216DAVISVP2,2013-09-30 19:27:00,
2013-09-30 15:32:00,70.8,61.3,29.99,WNW,295,5.0,6.0,72,0.00,,,0.00,WUHU216DAVISVP2,2013-09-30 19:32:00,
2013-09-30 15:37:00,70.2,61.3,29.99,WNW,298,1.8,8.0,73,0.00,,,0.00,WUHU216DAVISVP2,2013-09-30 19:37:00,
2013-09-30 15:42:00,69.7,61.2,29.99,NW,314,2.3,8.0,74,0.00,,,0.00,WUHU216DAVISVP2,2013-09-30 19:42:00,
2013-09-30 15:47:00,69.4,62.0,29.99,WNW,286,2.0,8.0,77,0.00,,,0.00,WUHU216DAVISVP2,2013-09-30 19:47:00,
2013-09-30 15:52:00,69.1,61.3,29.99,West,274,1.1,8.0,76,0.00,,,0.00,WUHU216DAVISVP2,2013-09-30 19:52:00,
2013-09-30 15:57:00,68.9,61.5,29.99,WNW,287,1.4,5.0,77,0.00,,,0.00,WUHU216DAVISVP2,2013-09-30 19:57:00,
2013-09-30 16:02:00,68.5,61.1,29.99,WSW,257,1.0,5.0,77,0.00,,,0.00,WUHU216DAVISVP2,2013-09-30 20:02:00,
2013-09-30 16:07:00,68.3,62.0,29.99,NW,304,0.0,3.0,80,0.00,,,0.00,WUHU216DAVISVP2,2013-09-30 20:07:00,
2013-09-30 16:12:00,67.9,61.9,29.99,NW,304,0.0,3.0,81,0.00,,,0.00,WUHU216DAVISVP2,2013-09-30 20:12:00,
2013-09-30 16:18:00,67.5,62.5,29.99,NW,304,0.0,2.0,84,0.00,,,0.00,WUHU216DAVISVP2,2013-09-30 20:18:00,
2013-09-30 16:23:00,67.2,62.2,29.99,NW,304,0.0,2.0,84,0.00,,,0.00,WUHU216DAVISVP2,2013-09-30 20:23:00,
2013-09-30 16:28:00,67.1,62.8,29.99,NW,304,0.0,1.0,86,0.00,,,0.00,WUHU216DAVISVP2,2013-09-30 20:28:00,
2013-09-30 16:33:00,66.8,62.5,29.99,NW,304,0.0,1.0,86,0.00,,,0.00,WUHU216DAVISVP2,2013-09-30 20:33:00,
2013-09-30 16:38:00,66.7,62.4,29.98,NW,304,0.0,1.0,86,0.00,,,0.00,WUHU216DAVISVP2,2013-09-30 20:38:00,
2013-09-30 16:43:00,66.7,62.4,29.99,NW,304,0.0,1.0,86,0.00,,,0.00,WUHU216DAVISVP2,2013-09-30 20:43:00,
2013-09-30 16:47:00,66.8,62.5,29.98,NW,304,0.0,0.0,86,0.00,,,0.00,WUHU216DAVISVP2,2013-09-30 20:47:00,
2013-09-30 16:52:00,66.8,62.8,29.98,NW,304,0.0,0.0,87,0.00,,,0.00,WUHU216DAVISVP2,2013-09-30 20:52:00,
2013-09-30 16:57:00,66.8,62.8,29.98,NW,304,0.0,0.0,87,0.00,,,0.00,WUHU216DAVISVP2,2013-09-30 20:57:00,
2013-09-30 17:02:00,66.8,63.1,29.98,NW,304,0.0,0.0,88,0.00,,,0.00,WUHU216DAVISVP2,2013-09-30 21:02:00,
2013-09-30 17:07:00,66.9,63.2,29.99,NW,304,0.0,0.0,88,0.00,,,0.00,WUHU216DAVISVP2,2013-09-30 21:07:00,
2013-09-30 17:12:00,66.9,62.6,29.99,NW,304,0.0,0.0,86,0.00,,,0.00,WUHU216DAVISVP2,2013-09-30 21:12:00,
2013-09-30 17:17:00,67.0,62.7,29.99,NW,304,0.0,0.0,86,0.00,,,0.00,WUHU216DAVISVP2,2013-09-30 21:17:00,
2013-09-30 17:23:00,67.1,63.4,29.99,NW,304,0.0,0.0,88,0.00,,,0.00,WUHU216DAVISVP2,2013-09-30 21:23:00,
2013-09-30 17:28:00,67.1,63.4,29.99,NW,304,0.0,0.0,88,0.00,,,0.00,WUHU216DAVISVP2,2013-09-30 21:28:00,
2013-09-30 17:33:00,67.1,63.7,29.99,NW,304,0.0,0.0,89,0.00,,,0.00,WUHU216DAVISVP2,2013-09-30 21:33:00,
2013-09-30 17:37:00,66.9,63.5,29.99,NW,304,0.0,0.0,89,0.00,,,0.00,WUHU216DAVISVP2,2013-09-30 21:37:00,
2013-09-30 17:43:00,66.7,63.4,29.99,NW,304,0.0,0.0,89,0.00,,,0.00,WUHU216DAVISVP2,2013-09-30 21:43:00,
2013-09-30 17:48:00,66.6,63.3,29.99,NW,304,0.0,0.0,89,0.00,,,0.00,WUHU216DAVISVP2,2013-09-30 21:48:00,
2013-09-30 17:53:00,66.6,63.3,29.99,NW,304,0.0,0.0,89,0.00,,,0.00,WUHU216DAVISVP2,2013-09-30 21:53:00,
2013-09-30 17:58:00,66.6,63.6,29.99,NW,304,0.0,0.0,90,0.00,,,0.00,WUHU216DAVISVP2,2013-09-30 21:58:00,
2013-09-30 18:03:00,66.5,63.5,30.00,NW,304,0.0,0.0,90,0.00,,,0.00,WUHU216DAVISVP2,2013-09-30 22:03:00,
2013-09-30 18:08:00,66.3,63.3,30.00,NW,304,0.0,0.0,90,0.00,,,0.00,WUHU216DAVISVP2,2013-09-30 22:08:00,
2013-09-30 18:13:00,66.2,63.5,30.00,NW,304,0.0,0.0,91,0.00,,,0.00,WUHU216DAVISVP2,2013-09-30 22:13:00,
2013-09-30 18:18:00,66.0,63.3,30.00,NW,304,0.0,0.0,91,0.00,,,0.00,WUHU216DAVISVP2,2013-09-30 22:18:00,
2013-09-30 18:23:00,65.8,63.1,30.00,NW,304,0.0,0.0,91,0.00,,,0.00,WUHU216DAVISVP2,2013-09-30 22:23:00,
2013-09-30 18:28:00,65.6,62.9,30.00,NW,304,0.0,0.0,91,0.00,,,0.00,WUHU216DAVISVP2,2013-09-30 22:28:00,
2013-09-30 18:33:00,65.3,62.9,30.00,NW,304,0.0,0.0,92,0.00,,,0.00,WUHU216DAVISVP2,2013-09-30 22:33:00,
2013-09-30 18:38:00,65.2,62.8,30.00,NW,304,0.0,0.0,92,0.00,,,0.00,WUHU216DAVISVP2,2013-09-30 22:38:00,
2013-09-30 18:43:00,65.1,62.7,30.00,NW,304,0.0,0.0,92,0.00,,,0.00,WUHU216DAVISVP2,2013-09-30 22:43:00,
2013-09-30 18:48:00,64.9,62.5,30.00,NW,304,0.0,0.0,92,0.00,,,0.00,WUHU216DAVISVP2,2013-09-30 22:48:00,
2013-09-30 18:53:00,64.7,62.6,30.01,NW,304,0.0,0.0,93,0.00,,,0.00,WUHU216DAVISVP2,2013-09-30 22:53:00,
2013-09-30 18:58:00,64.5,62.1,30.01,NW,304,0.0,0.0,92,0.00,,,0.00,WUHU216DAVISVP2,2013-09-30 22:58:00,
2013-09-30 19:03:00,64.4,62.3,30.01,NW,304,0.0,0.0,93,0.00,,,0.00,WUHU216DAVISVP2,2013-09-30 23:03:00,
2013-09-30 19:08:00,64.2,62.1,30.01,NW,304,0.0,0.0,93,0.00,,,0.00,WUHU216DAVISVP2,2013-09-30 23:08:00,
2013-09-30 19:13:00,64.0,61.9,30.01,NW,304,0.0,0.0,93,0.00,,,0.00,WUHU216DAVISVP2,2013-09-30 23:13:00,
2013-09-30 19:18:00,63.9,61.8,30.01,NW,304,0.0,0.0,93,0.00,,,0.00,WUHU216DAVISVP2,2013-09-30 23:18:00,
2013-09-30 19:23:00,63.7,61.9,30.01,NW,304,0.0,0.0,94,0.00,,,0.00,WUHU216DAVISVP2,2013-09-30 23:23:00,
2013-09-30 19:28:00,63.6,61.8,30.01,NW,304,0.0,0.0,94,0.00,,,0.00,WUHU216DAVISVP2,2013-09-30 23:28:00,
2013-09-30 19:33:00,63.4,61.6,30.01,NW,304,0.0,0.0,94,0.00,,,0.00,WUHU216DAVISVP2,2013-09-30 23:33:00,
2013-09-30 19:38:00,63.3,61.5,30.01,NW,304,0.0,0.0,94,0.00,,,0.00,WUHU216DAVISVP2,2013-09-30 23:38:00,
2013-09-30 19:43:00,63.2,61.4,30.01,NW,304,0.0,0.0,94,0.00,,,0.00,WUHU216DAVISVP2,2013-09-30 23:43:00,
2013-09-30 19:48:00,63.1,61.3,30.01,NW,304,0.0,0.0,94,0.00,,,0.00,WUHU216DAVISVP2,2013-09-30 23:48:00,
2013-09-30 19:53:00,63.0,61.2,30.01,NW,304,0.0,0.0,94,0.00,,,0.00,WUHU216DAVISVP2,2013-09-30 23:53:00,
2013-09-30 19:58:00,63.0,61.5,30.01,NW,304,0.0,0.0,95,0.00,,,0.00,WUHU216DAVISVP2,2013-09-30 23:58:00,
2013-09-30 20:03:00,63.0,61.5,30.01,NW,304,0.0,0.0,95,0.00,,,0.00,WUHU216DAVISVP2,2013-10-01 00:03:00,
2013-09-30 20:08:00,62.8,61.3,30.01,NW,304,0.0,0.0,95,0.00,,,0.00,WUHU216DAVISVP2,2013-10-01 00:08:00,
2013-09-30 20:13:00,62.6,61.1,30.02,NW,304,0.0,0.0,95,0.00,,,0.00,WUHU216DAVISVP2,2013-10-01 00:13:00,
2013-09-30 20:18:00,62.7,61.2,30.02,NW,304,0.0,0.0,95,0.00,,,0.00,WUHU216DAVISVP2,2013-10-01 00:18:00,
2013-09-30 20:23:00,62.7,61.2,30.02,NW,304,0.0,0.0,95,0.00,,,0.00,WUHU216DAVISVP2,2013-10-01 00:23:00,
2013-09-30 20:28:00,62.6,61.1,30.02,NW,304,0.0,0.0,95,0.00,,,0.00,WUHU216DAVISVP2,2013-10-01 00:28:00,
2013-09-30 20:33:00,62.4,60.9,30.02,NW,304,0.0,0.0,95,0.00,,,0.00,WUHU216DAVISVP2,2013-10-01 00:33:00,
2013-09-30 20:38:00,62.4,60.9,30.02,NW,304,0.0,0.0,95,0.00,,,0.00,WUHU216DAVISVP2,2013-10-01 00:38:00,
2013-09-30 20:43:00,62.4,60.9,30.02,NW,304,0.0,0.0,95,0.00,,,0.00,WUHU216DAVISVP2,2013-10-01 00:43:00,
2013-09-30 20:48:00,62.3,60.8,30.02,NW,304,0.0,0.0,95,0.00,,,0.00,WUHU216DAVISVP2,2013-10-01 00:48:00,
2013-09-30 20:53:00,62.3,60.8,30.02,NW,304,0.0,0.0,95,0.00,,,0.00,WUHU216DAVISVP2,2013-10-01 00:53:00,
2013-09-30 20:58:00,62.3,60.8,30.02,NW,304,0.0,0.0,95,0.00,,,0.00,WUHU216DAVISVP2,2013-10-01 00:58:00,
2013-09-30 21:03:00,62.2,60.7,30.02,NW,304,0.0,0.0,95,0.00,,,0.00,WUHU216DAVISVP2,2013-10-01 01:03:00,
2013-09-30 21:08:00,62.2,61.0,30.02,NW,304,0.0,0.0,96,0.00,,,0.00,WUHU216DAVISVP2,2013-10-01 01:08:00,
2013-09-30 21:13:00,62.0,60.5,30.02,NW,304,0.0,0.0,95,0.00,,,0.00,WUHU216DAVISVP2,2013-10-01 01:13:00,
2013-09-30 21:18:00,62.0,60.8,30.02,NW,304,0.0,0.0,96,0.00,,,0.00,WUHU216DAVISVP2,2013-10-01 01:18:00,
2013-09-30 21:23:00,62.1,60.9,30.03,NW,304,0.0,0.0,96,0.00,,,0.00,WUHU216DAVISVP2,2013-10-01 01:23:00,
2013-09-30 21:28:00,62.1,60.9,30.03,NW,304,0.0,0.0,96,0.00,,,0.00,WUHU216DAVISVP2,2013-10-01 01:28:00,
2013-09-30 21:33:00,62.0,60.8,30.03,NW,304,0.0,0.0,96,0.00,,,0.00,WUHU216DAVISVP2,2013-10-01 01:33:00,
2013-09-30 21:38:00,61.8,60.6,30.03,NW,304,0.0,0.0,96,0.00,,,0.00,WUHU216DAVISVP2,2013-10-01 01:38:00,
2013-09-30 21:43:00,62.0,60.8,30.03,NW,304,0.0,0.0,96,0.00,,,0.00,WUHU216DAVISVP2,2013-10-01 01:43:00,
2013-09-30 21:48:00,62.0,60.8,30.03,NW,304,0.0,0.0,96,0.00,,,0.00,WUHU216DAVISVP2,2013-10-01 01:48:00,
2013-09-30 21:53:00,61.8,60.6,30.03,NW,304,0.0,0.0,96,0.00,,,0.00,WUHU216DAVISVP2,2013-10-01 01:53:00,
2013-09-30 21:58:00,61.6,60.4,30.03,NW,304,0.0,0.0,96,0.00,,,0.00,WUHU216DAVISVP2,2013-10-01 01:58:00,
2013-09-30 22:03:00,61.6,60.4,30.03,NW,304,0.0,0.0,96,0.00,,,0.00,WUHU216DAVISVP2,2013-10-01 02:03:00,
2013-09-30 22:08:00,61.5,60.3,30.03,NW,304,0.0,0.0,96,0.00,,,0.00,WUHU216DAVISVP2,2013-10-01 02:08:00,
2013-09-30 22:13:00,61.4,60.2,30.03,NW,304,0.0,0.0,96,0.00,,,0.00,WUHU216DAVISVP2,2013-10-01 02:13:00,
2013-09-30 22:18:00,61.3,60.2,30.03,NW,304,0.0,0.0,96,0.00,,,0.00,WUHU216DAVISVP2,2013-10-01 02:18:00,
2013-09-30 22:23:00,61.3,60.2,30.03,NW,304,0.0,0.0,96,0.00,,,0.00,WUHU216DAVISVP2,2013-10-01 02:23:00,
2013-09-30 22:28:00,61.4,60.2,30.03,NW,304,0.0,0.0,96,0.00,,,0.00,WUHU216DAVISVP2,2013-10-01 02:28:00,
2013-09-30 22:33:00,61.4,60.2,30.03,NW,304,0.0,0.0,96,0.00,,,0.00,WUHU216DAVISVP2,2013-10-01 02:33:00,
2013-09-30 22:38:00,61.1,59.9,30.03,NW,304,0.0,0.0,96,0.00,,,0.00,WUHU216DAVISVP2,2013-10-01 02:38:00,
2013-09-30 22:43:00,60.9,59.7,30.03,NW,304,0.0,0.0,96,0.00,,,0.00,WUHU216DAVISVP2,2013-10-01 02:43:00,
2013-09-30 22:48:00,60.7,59.5,30.03,NW,304,0.0,0.0,96,0.00,,,0.00,WUHU216DAVISVP2,2013-10-01 02:48:00,
2013-09-30 22:53:00,60.6,59.4,30.03,NW,304,0.0,0.0,96,0.00,,,0.00,WUHU216DAVISVP2,2013-10-01 02:53:00,
2013-09-30 22:58:00,60.7,59.5,30.03,NW,304,0.0,0.0,96,0.00,,,0.00,WUHU216DAVISVP2,2013-10-01 02:58:00,
2013-09-30 23:03:00,60.6,59.4,30.03,NW,304,0.0,0.0,96,0.00,,,0.00,WUHU216DAVISVP2,2013-10-01 03:03:00,
2013-09-30 23:08:00,60.5,59.3,30.03,WNW,303,0.0,0.0,96,0.00,,,0.00,WUHU216DAVISVP2,2013-10-01 03:08:00,
2013-09-30 23:13:00,60.1,58.9,30.03,NW,304,0.0,0.0,96,0.00,,,0.00,WUHU216DAVISVP2,2013-10-01 03:13:00,
2013-09-30 23:18:00,59.9,58.7,30.03,NW,304,0.0,0.0,96,0.00,,,0.00,WUHU216DAVISVP2,2013-10-01 03:18:00,
2013-09-30 23:23:00,60.0,58.8,30.03,NW,304,0.0,0.0,96,0.00,,,0.00,WUHU216DAVISVP2,2013-10-01 03:23:00,
2013-09-30 23:28:00,59.7,58.5,30.03,NW,304,0.0,0.0,96,0.00,,,0.00,WUHU216DAVISVP2,2013-10-01 03:28:00,
2013-09-30 23:33:00,59.5,58.3,30.03,NW,304,0.0,0.0,96,0.00,,,0.00,WUHU216DAVISVP2,2013-10-01 03:33:00,
2013-09-30 23:38:00,59.5,58.4,30.03,NW,304,0.0,0.0,96,0.00,,,0.00,WUHU216DAVISVP2,2013-10-01 03:38:00,
2013-09-30 23:43:00,59.2,58.1,30.03,NW,304,0.0,0.0,96,0.00,,,0.00,WUHU216DAVISVP2,2013-10-01 03:43:00,
2013-09-30 23:48:00,58.9,57.8,30.03,NW,304,0.0,0.0,96,0.00,,,0.00,WUHU216DAVISVP2,2013-10-01 03:48:00,
2013-09-30 23:53:00,58.6,57.5,30.03,NW,304,0.0,0.0,96,0.00,,,0.00,WUHU216DAVISVP2,2013-10-01 03:53:00,
2013-09-30 23:58:00,58.6,57.5,30.03,NW,304,0.0,0.0,96,0.00,,,0.00,WUHU216DAVISVP2,2013-10-01 03:58:00,